Time;durP1;ratioP1;P1;durP2;ratioP2;P2;SDS_P1;SDS_P2;PMS_P1;PMS_P2;Temp;Humidity;BMP_temperature;BMP_pressure;BME280_temperature;BME280_humidity;BME280_pressure;Samples;Min_cycle;Max_cycle;Signal;HPM_P1;HPM_P2
2022/04/08 00:02:08;;;;;;;16.90;2.60;;;;;;;4.49;77.38;99906.19;5074805;28;20081;-73
2022/04/08 00:04:34;;;;;;;21.13;2.60;;;;;;;4.47;77.53;99910.75;5092776;28;20066;-73
2022/04/08 00:07:00;;;;;;;13.18;2.55;;;;;;;4.41;79.49;99918.16;5092681;28;20512;-74
2022/04/08 00:09:26;;;;;;;11.30;2.47;;;;;;;4.28;80.88;99914.00;5074375;28;20468;-74
2022/04/08 00:11:51;;;;;;;11.90;2.10;;;;;;;4.11;82.12;99899.53;5092574;28;20028;-73
2022/04/08 00:14:18;;;;;;;22.75;2.20;;;;;;;3.96;82.75;99928.72;5075787;28;20036;-74
2022/04/08 00:16:44;;;;;;;16.98;2.22;;;;;;;3.85;82.83;99919.03;5095932;28;20097;-73
2022/04/08 00:19:10;;;;;;;12.48;2.40;;;;;;;3.83;82.98;99922.72;5096226;28;20126;-74
2022/04/08 00:21:36;;;;;;;10.10;1.98;;;;;;;3.89;80.98;99912.53;5096156;28;20036;-73
2022/04/08 00:24:01;;;;;;;18.80;2.78;;;;;;;3.94;80.06;99921.88;5095911;28;20086;-74
2022/04/08 00:26:27;;;;;;;9.38;2.42;;;;;;;3.97;78.96;99919.03;5096008;28;20032;-72
2022/04/08 00:28:52;;;;;;;8.93;1.80;;;;;;;3.96;79.00;99915.56;5096479;28;20024;-72
2022/04/08 00:31:17;;;;;;;12.15;1.77;;;;;;;3.94;75.78;99922.75;5095593;28;20077;-73
2022/04/08 00:33:43;;;;;;;15.88;2.15;;;;;;;3.94;75.84;99929.78;5095554;28;20071;-74
2022/04/08 00:36:08;;;;;;;13.50;2.17;;;;;;;3.92;76.62;99929.06;5078316;28;20040;-73
2022/04/08 00:38:33;;;;;;;14.40;2.88;;;;;;;3.96;76.43;99930.53;5095651;28;20028;-73
2022/04/08 00:40:59;;;;;;;12.57;2.42;;;;;;;3.96;76.70;99938.41;5078411;28;20143;-73
2022/04/08 00:43:36;;;;;;;12.57;3.20;;;;;;;3.94;76.89;99948.22;5095639;28;20032;-73
2022/04/08 00:46:07;;;;;;;12.73;2.30;;;;;;;3.89;77.32;99941.50;5096431;28;20364;-72
2022/04/08 00:48:33;;;;;;;8.32;2.15;;;;;;;3.85;78.45;99941.84;5095817;28;20024;-73
2022/04/08 00:50:59;;;;;;;12.40;2.72;;;;;;;3.79;78.90;99952.84;5077531;28;20515;-73
2022/04/08 00:53:25;;;;;;;19.63;3.20;;;;;;;3.75;79.51;99952.25;5095374;28;20028;-73
2022/04/08 00:55:52;;;;;;;11.38;2.28;;;;;;;3.81;78.98;99957.06;5095808;28;20058;-73
2022/04/08 00:58:17;;;;;;;15.90;2.63;;;;;;;3.85;79.62;99960.28;5078008;28;20035;-72
2022/04/08 01:00:43;;;;;;;12.98;2.50;;;;;;;3.88;79.48;99970.56;5095587;28;20509;-73
2022/04/08 01:03:08;;;;;;;19.50;3.30;;;;;;;3.89;79.54;99967.00;5095440;28;20038;-72
2022/04/08 01:05:34;;;;;;;24.90;2.30;;;;;;;3.87;79.25;99964.47;5077271;28;20038;-74
2022/04/08 01:08:00;;;;;;;11.52;2.30;;;;;;;3.83;79.97;99959.56;5095306;28;20035;-73
2022/04/08 01:10:26;;;;;;;15.70;2.58;;;;;;;3.76;80.22;99948.66;5077301;28;20353;-77
2022/04/08 01:12:51;;;;;;;17.42;2.65;;;;;;;3.79;80.58;99952.84;5077065;28;20346;-73
2022/04/08 01:15:18;;;;;;;13.43;2.95;;;;;;;3.83;80.43;99962.19;5095413;28;20033;-73
2022/04/08 01:17:44;;;;;;;21.65;3.42;;;;;;;3.94;80.07;99964.00;5095348;28;20032;-73
2022/04/08 01:20:10;;;;;;;9.90;2.20;;;;;;;4.03;79.91;99955.38;5076968;28;20036;-73
2022/04/08 01:22:36;;;;;;;17.58;3.05;;;;;;;4.08;80.18;99961.16;5094873;28;20455;-74
2022/04/08 01:25:06;;;;;;;19.77;3.67;;;;;;;4.14;80.55;99968.56;5094470;28;20177;-72
2022/04/08 01:27:32;;;;;;;15.18;3.38;;;;;;;4.17;80.79;99980.66;5094211;28;20590;-74
2022/04/08 01:29:57;;;;;;;16.17;3.25;;;;;;;4.16;81.37;99974.53;5095593;28;20036;-73
2022/04/08 01:32:23;;;;;;;21.08;3.22;;;;;;;4.12;82.38;99978.41;5094661;28;20078;-73
2022/04/08 01:34:50;;;;;;;14.07;2.15;;;;;;;4.07;83.38;99980.53;5094573;28;20169;-74
2022/04/08 01:37:16;;;;;;;16.48;2.40;;;;;;;4.11;83.01;99989.06;5094686;28;20028;-74
2022/04/08 01:39:41;;;;;;;23.88;3.22;;;;;;;4.14;82.11;99989.63;5094749;28;20101;-73
2022/04/08 01:42:08;;;;;;;13.32;1.95;;;;;;;4.18;81.70;100000.75;5094628;28;20031;-73
2022/04/08 01:44:34;;;;;;;15.38;2.42;;;;;;;4.15;81.93;99995.72;5093907;28;20064;-73
2022/04/08 01:47:00;;;;;;;8.30;1.88;;;;;;;4.12;80.91;99996.84;5094766;28;20036;-73
2022/04/08 01:49:25;;;;;;;10.27;2.45;;;;;;;4.17;78.41;99993.84;5094311;28;20081;-73
2022/04/08 01:51:51;;;;;;;13.15;2.33;;;;;;;4.23;77.73;99988.09;5094493;28;20479;-75
2022/04/08 01:54:16;;;;;;;11.55;2.63;;;;;;;4.23;77.67;100002.09;5094248;28;20030;-73
2022/04/08 01:56:41;;;;;;;8.75;1.95;;;;;;;4.26;76.57;99994.94;5093943;28;20064;-72
2022/04/08 01:59:07;;;;;;;13.77;2.42;;;;;;;4.21;77.19;100003.16;5076170;28;20051;-73
2022/04/08 02:01:32;;;;;;;14.52;2.38;;;;;;;4.16;76.35;100008.78;5094146;28;20039;-74
2022/04/08 02:03:57;;;;;;;7.05;2.30;;;;;;;4.17;75.00;100002.56;5094241;28;20039;-73
2022/04/08 02:06:23;;;;;;;8.02;2.38;;;;;;;4.13;75.45;100009.00;5060053;28;20032;-73
2022/04/08 02:08:50;;;;;;;7.22;2.30;;;;;;;4.12;75.48;100009.13;5094006;28;20028;-72
2022/04/08 02:11:15;;;;;;;9.50;2.08;;;;;;;4.10;75.55;99997.91;5042602;28;20084;-72
2022/04/08 02:13:41;;;;;;;10.80;2.28;;;;;;;4.08;74.33;100002.44;5093435;28;20039;-72
2022/04/08 02:16:06;;;;;;;15.43;2.20;;;;;;;4.08;74.24;100003.28;5093462;28;20387;-72
2022/04/08 02:18:32;;;;;;;5.05;1.60;;;;;;;4.08;74.44;99990.13;5093977;28;20570;-74
2022/04/08 02:20:57;;;;;;;7.95;2.13;;;;;;;4.08;74.67;99990.13;5058977;28;20482;-73
2022/04/08 02:23:23;;;;;;;10.95;2.40;;;;;;;4.10;74.70;99990.81;5093382;28;20055;-73
2022/04/08 02:25:48;;;;;;;7.63;2.22;;;;;;;4.08;75.20;99984.03;5094028;28;20158;-73
2022/04/08 02:28:14;;;;;;;14.13;2.88;;;;;;;4.04;75.92;99989.50;5075675;28;20388;-73
2022/04/08 02:30:39;;;;;;;6.18;1.80;;;;;;;3.98;76.59;99989.13;5093480;28;20039;-74
2022/04/08 02:33:05;;;;;;;9.75;2.10;;;;;;;3.95;76.37;99981.47;5093526;28;20032;-73
2022/04/08 02:35:31;;;;;;;11.27;2.00;;;;;;;3.87;76.21;99985.53;5075275;28;20043;-73
2022/04/08 02:37:57;;;;;;;11.90;2.25;;;;;;;3.84;74.44;99977.88;5093216;28;20036;-73
2022/04/08 02:40:22;;;;;;;11.15;1.90;;;;;;;3.86;73.77;99977.75;5093695;28;20088;-73
2022/04/08 02:42:48;;;;;;;11.07;2.20;;;;;;;3.84;73.68;99988.41;5093262;28;20052;-73
2022/04/08 02:45:13;;;;;;;7.55;1.83;;;;;;;3.80;74.37;99986.13;5093145;28;20043;-73
2022/04/08 02:47:43;;;;;;;8.57;1.95;;;;;;;3.78;74.17;99986.22;5092849;28;20559;-73
2022/04/08 02:50:09;;;;;;;8.13;2.05;;;;;;;3.76;74.61;99979.41;5075111;28;20024;-73
2022/04/08 02:52:35;;;;;;;10.10;1.70;;;;;;;3.69;75.40;99987.75;5093441;28;20480;-73
2022/04/08 02:55:01;;;;;;;9.32;2.10;;;;;;;3.73;76.60;99990.16;5093284;28;20028;-73
2022/04/08 02:57:26;;;;;;;12.40;2.38;;;;;;;3.75;77.05;99999.63;5075011;28;20457;-74
2022/04/08 02:59:53;;;;;;;5.97;1.65;;;;;;;3.74;77.95;99999.75;5093096;28;20376;-74
2022/04/08 03:02:19;;;;;;;13.30;1.92;;;;;;;3.76;78.35;99998.66;5093679;28;20027;-73
2022/04/08 03:04:44;;;;;;;8.43;1.60;;;;;;;3.76;78.61;100011.81;5092770;28;20384;-73
2022/04/08 03:07:10;;;;;;;13.57;2.58;;;;;;;3.80;78.56;100013.25;5092886;28;20039;-74
2022/04/08 03:09:38;;;;;;;11.10;2.45;;;;;;;3.76;78.92;100011.81;5075577;28;20036;-73
2022/04/08 03:12:04;;;;;;;10.82;1.95;;;;;;;3.75;79.41;100023.31;5092961;28;20464;-73
2022/04/08 03:14:31;;;;;;;8.75;1.85;;;;;;;3.73;79.77;100027.81;5074852;28;20032;-74
2022/04/08 03:16:56;;;;;;;11.90;1.90;;;;;;;3.69;80.04;100016.72;5092828;28;20055;-74
2022/04/08 03:19:21;;;;;;;8.73;1.88;;;;;;;3.63;79.93;100024.22;5092925;28;20060;-74
2022/04/08 03:21:47;;;;;;;10.98;1.98;;;;;;;3.66;79.92;100021.38;5075058;28;20035;-73
2022/04/08 03:24:12;;;;;;;9.80;1.70;;;;;;;3.61;80.22;100026.13;5074674;28;20039;-74
2022/04/08 03:26:39;;;;;;;12.00;1.60;;;;;;;3.62;80.18;100026.00;5093030;28;20510;-73
2022/04/08 03:29:04;;;;;;;8.63;1.65;;;;;;;3.62;80.05;100028.63;5092839;28;20044;-74
2022/04/08 03:31:29;;;;;;;8.05;1.70;;;;;;;3.62;80.42;100031.28;5093085;28;20054;-73
2022/04/08 03:33:55;;;;;;;7.63;1.60;;;;;;;3.64;79.73;100033.78;5093130;28;20505;-74
2022/04/08 03:36:21;;;;;;;12.30;2.15;;;;;;;3.67;79.75;100029.16;5092401;28;20028;-73
2022/04/08 03:38:46;;;;;;;9.82;1.50;;;;;;;3.67;79.90;100017.75;5092552;28;20040;-73
2022/04/08 03:41:12;;;;;;;13.73;1.90;;;;;;;3.69;79.78;100026.41;5092525;28;20469;-73
2022/04/08 03:43:37;;;;;;;13.20;3.03;;;;;;;3.65;79.83;100020.50;5092644;28;20051;-72
2022/04/08 03:46:03;;;;;;;9.27;1.55;;;;;;;3.61;79.88;100023.50;5092584;28;20362;-73
2022/04/08 03:48:29;;;;;;;7.80;1.80;;;;;;;3.59;80.17;100023.59;5074213;28;20082;-72
2022/04/08 03:50:54;;;;;;;10.90;2.00;;;;;;;3.57;79.85;100025.53;5096403;28;20044;-73
2022/04/08 03:53:20;;;;;;;7.85;1.70;;;;;;;3.50;80.20;100019.03;5096452;28;20040;-72
2022/04/08 03:55:46;;;;;;;13.88;2.13;;;;;;;3.41;80.68;100017.91;5096111;28;20050;-74
2022/04/08 03:58:11;;;;;;;15.45;2.35;;;;;;;3.40;81.72;100015.41;5096658;28;20028;-73
2022/04/08 04:00:37;;;;;;;7.38;1.60;;;;;;;3.44;81.33;100015.06;5096726;28;20471;-72
2022/04/08 04:03:03;;;;;;;14.30;2.05;;;;;;;3.43;81.78;100010.75;5096062;28;20036;-73
2022/04/08 04:05:30;;;;;;;5.57;2.05;;;;;;;3.33;82.00;100005.34;5096354;28;20060;-72
2022/04/08 04:07:58;;;;;;;8.48;1.75;;;;;;;3.29;82.16;100008.31;5096282;28;20038;-75
2022/04/08 04:10:23;;;;;;;7.43;1.60;;;;;;;3.30;82.33;100012.59;5096517;28;20031;-73
2022/04/08 04:12:50;;;;;;;19.05;1.85;;;;;;;3.36;81.83;100006.91;5096038;28;20032;-73
2022/04/08 04:15:15;;;;;;;10.35;1.98;;;;;;;3.40;81.30;100002.25;5096472;28;20031;-72
2022/04/08 04:17:40;;;;;;;16.38;1.98;;;;;;;3.38;81.33;100010.25;5096302;28;20380;-72
2022/04/08 04:20:06;;;;;;;11.93;2.10;;;;;;;3.43;80.81;100004.66;5095597;28;20040;-74
2022/04/08 04:22:32;;;;;;;8.73;2.00;;;;;;;3.44;80.47;100012.44;5096322;28;20373;-72
2022/04/08 04:24:57;;;;;;;10.30;1.90;;;;;;;3.49;80.66;100019.97;5077673;28;20134;-74
2022/04/08 04:27:22;;;;;;;7.95;1.67;;;;;;;3.49;80.48;100014.72;5077812;28;20111;-73
2022/04/08 04:29:48;;;;;;;15.02;2.40;;;;;;;3.48;80.21;100013.88;5095890;28;20082;-73
2022/04/08 04:32:13;;;;;;;9.35;1.95;;;;;;;3.50;80.22;100011.97;5077660;28;20439;-73
2022/04/08 04:34:39;;;;;;;11.75;1.85;;;;;;;3.56;79.81;100007.22;5095607;28;20028;-74
2022/04/08 04:37:05;;;;;;;17.33;4.45;;;;;;;3.65;78.86;100019.69;5095667;28;20034;-73
2022/04/08 04:39:31;;;;;;;14.98;2.10;;;;;;;3.65;78.63;100017.88;5095480;28;20044;-73
2022/04/08 04:41:56;;;;;;;7.85;1.80;;;;;;;3.69;78.50;100006.19;5095598;28;20428;-73
2022/04/08 04:44:22;;;;;;;7.32;2.22;;;;;;;3.82;77.27;100013.16;5095662;28;20041;-73
2022/04/08 04:46:47;;;;;;;13.57;1.98;;;;;;;3.92;76.70;100015.94;5095603;28;20028;-73
2022/04/08 04:49:13;;;;;;;11.75;1.83;;;;;;;4.00;75.84;100016.19;5077407;28;20034;-75
2022/04/08 04:51:39;;;;;;;12.45;1.92;;;;;;;4.08;75.61;100019.06;5095842;28;20040;-74
2022/04/08 04:54:04;;;;;;;13.88;1.92;;;;;;;4.13;75.21;100018.72;5095385;28;20569;-73
2022/04/08 04:56:30;;;;;;;19.05;2.00;;;;;;;4.16;74.78;100014.03;5095518;28;20044;-74
2022/04/08 04:58:55;;;;;;;14.00;1.95;;;;;;;4.13;74.94;100016.91;5077385;28;20476;-74
2022/04/08 05:01:20;;;;;;;9.77;1.77;;;;;;;4.12;74.90;100011.78;5095320;28;20369;-74
2022/04/08 05:03:46;;;;;;;13.30;2.30;;;;;;;4.15;74.48;100016.78;5095231;28;20062;-73
2022/04/08 05:06:11;;;;;;;8.20;1.70;;;;;;;4.11;75.15;100012.75;5076994;28;20032;-74
2022/04/08 05:08:37;;;;;;;11.38;2.58;;;;;;;4.02;75.48;100016.91;5095221;28;20429;-74
2022/04/08 05:11:02;;;;;;;13.38;2.20;;;;;;;3.93;75.74;100017.63;5095053;28;20078;-73
2022/04/08 05:13:28;;;;;;;13.45;2.10;;;;;;;3.91;75.45;100015.06;5095255;28;20043;-74
2022/04/08 05:15:53;;;;;;;11.93;2.17;;;;;;;3.85;75.74;100010.28;5095625;28;20053;-73
2022/04/08 05:18:18;;;;;;;10.48;2.05;;;;;;;3.87;76.24;100011.84;5076883;28;20032;-73
2022/04/08 05:20:52;;;;;;;8.68;1.83;;;;;;;3.94;75.60;100004.34;5094577;28;20024;-74
2022/04/08 05:23:17;;;;;;;12.93;2.65;;;;;;;3.96;75.90;99996.31;5095753;28;20024;-74
2022/04/08 05:25:42;;;;;;;16.75;2.17;;;;;;;4.02;75.17;99993.22;5095113;28;20055;-74
2022/04/08 05:28:11;;;;;;;9.75;2.03;;;;;;;4.06;75.22;99998.13;5094983;28;20028;-73
2022/04/08 05:30:37;;;;;;;14.38;1.98;;;;;;;4.05;75.15;100001.72;5094809;28;20077;-73
2022/04/08 05:33:02;;;;;;;15.18;2.00;;;;;;;4.08;75.26;99997.19;5094608;28;20032;-74
2022/04/08 05:35:28;;;;;;;12.45;1.92;;;;;;;4.08;76.00;99990.13;5094692;28;20076;-74
2022/04/08 05:37:53;;;;;;;13.13;2.17;;;;;;;4.11;75.71;99999.59;5094358;28;20115;-73
2022/04/08 05:40:23;;;;;;;9.07;1.70;;;;;;;4.16;75.49;99992.16;5095605;28;20059;-74
2022/04/08 05:42:49;;;;;;;14.48;2.45;;;;;;;4.17;76.09;99984.13;5094322;28;20040;-74
2022/04/08 05:45:18;;;;;;;12.80;2.45;;;;;;;4.20;76.37;99985.69;5076340;28;20027;-74
2022/04/08 05:47:44;;;;;;;13.90;1.70;;;;;;;4.23;76.41;99975.75;5094305;28;20028;-74
2022/04/08 05:50:11;;;;;;;12.10;2.17;;;;;;;4.28;76.80;99971.94;5094328;28;20035;-74
2022/04/08 05:52:36;;;;;;;13.38;1.92;;;;;;;4.35;76.38;99981.88;5094645;28;20032;-74
2022/04/08 05:55:02;;;;;;;10.82;2.35;;;;;;;4.41;76.38;99984.00;5094339;28;20035;-73
2022/04/08 05:57:33;;;;;;;16.35;2.25;;;;;;;4.48;76.37;99979.13;5094398;28;20088;-74
2022/04/08 05:59:59;;;;;;;14.70;1.80;;;;;;;4.52;76.79;99974.44;5094507;28;20043;-74
2022/04/08 06:02:25;;;;;;;15.93;2.85;;;;;;;4.55;76.63;99977.69;5094367;28;20036;-74
2022/04/08 06:04:50;;;;;;;12.30;2.20;;;;;;;4.59;77.21;99979.09;5076057;28;20028;-74
2022/04/08 06:07:16;;;;;;;12.55;1.98;;;;;;;4.64;76.57;99976.09;5076140;28;20464;-73
2022/04/08 06:09:41;;;;;;;16.05;2.30;;;;;;;4.73;76.09;99980.66;5076415;28;20119;-74
2022/04/08 06:12:07;;;;;;;15.05;2.17;;;;;;;4.79;76.22;99991.66;5075085;28;20369;-74
2022/04/08 06:14:33;;;;;;;15.95;2.35;;;;;;;4.81;75.58;99987.06;5093851;28;20032;-73
2022/04/08 06:16:58;;;;;;;14.40;2.35;;;;;;;4.84;75.79;99979.78;5094259;28;20043;-73
2022/04/08 06:19:23;;;;;;;17.50;2.72;;;;;;;4.86;76.06;99985.75;5075329;28;20560;-74
2022/04/08 06:21:49;;;;;;;12.30;2.20;;;;;;;4.91;75.66;99978.34;5094428;28;20032;-73
2022/04/08 06:24:14;;;;;;;11.57;2.30;;;;;;;4.91;75.67;99988.88;5075502;28;20089;-74
2022/04/08 06:26:40;;;;;;;19.98;2.42;;;;;;;4.92;76.26;99982.63;5093512;28;20063;-76
2022/04/08 06:29:05;;;;;;;8.75;1.80;;;;;;;4.95;76.22;99984.19;5075419;28;20024;-74
2022/04/08 06:31:32;;;;;;;14.93;2.72;;;;;;;5.03;75.52;99983.56;5093744;28;20032;-73
2022/04/08 06:34:01;;;;;;;20.17;2.22;;;;;;;5.10;75.75;99984.75;5093584;28;20024;-73
2022/04/08 06:36:28;;;;;;;18.73;2.05;;;;;;;5.20;74.06;99975.13;5093444;28;20032;-74
2022/04/08 06:38:54;;;;;;;10.65;1.90;;;;;;;5.34;72.88;99983.69;5093280;28;20048;-74
2022/04/08 06:41:20;;;;;;;12.65;2.20;;;;;;;5.41;72.73;99983.06;5093489;28;20166;-74
2022/04/08 06:43:45;;;;;;;10.60;2.03;;;;;;;5.48;72.35;99989.50;5075447;28;20475;-74
2022/04/08 06:46:11;;;;;;;13.23;2.50;;;;;;;5.59;71.80;99991.25;5093458;28;20043;-74
2022/04/08 06:48:36;;;;;;;15.43;1.92;;;;;;;5.67;71.78;99998.53;5093155;28;20032;-74
2022/04/08 06:51:04;;;;;;;11.57;2.17;;;;;;;5.71;71.87;99992.03;5093656;28;20028;-74
2022/04/08 06:53:31;;;;;;;12.07;2.17;;;;;;;5.78;73.12;99998.47;5093831;28;20024;-74
2022/04/08 06:55:56;;;;;;;14.88;3.28;;;;;;;5.88;71.75;99988.00;5093824;28;20529;-75
2022/04/08 06:58:26;;;;;;;9.27;2.08;;;;;;;5.99;70.15;99990.59;5093295;28;20036;-74
2022/04/08 07:00:52;;;;;;;7.63;1.60;;;;;;;6.05;69.04;99989.22;5075213;28;20034;-73
2022/04/08 07:03:17;;;;;;;10.80;2.05;;;;;;;6.10;69.17;99994.13;5093789;28;20032;-74
2022/04/08 07:05:42;;;;;;;15.80;1.88;;;;;;;6.11;69.50;99985.22;5093544;28;20043;-75
2022/04/08 07:08:08;;;;;;;13.32;2.20;;;;;;;6.18;68.80;99994.31;5093306;28;20032;-75
2022/04/08 07:10:33;;;;;;;8.88;1.70;;;;;;;6.16;67.48;99990.94;5093243;28;20032;-74
2022/04/08 07:12:59;;;;;;;9.13;1.90;;;;;;;6.25;66.91;99994.59;5093465;28;20032;-74
2022/04/08 07:15:25;;;;;;;6.70;1.80;;;;;;;6.25;68.31;99994.59;5093792;28;20064;-73
2022/04/08 07:17:50;;;;;;;15.40;2.50;;;;;;;6.29;68.72;99994.22;5093686;28;20035;-74
2022/04/08 07:20:17;;;;;;;10.68;2.33;;;;;;;6.31;68.72;99984.34;5075507;28;20039;-74
2022/04/08 07:22:43;;;;;;;11.32;1.95;;;;;;;6.33;69.21;99990.34;5092731;28;20028;-74
2022/04/08 07:25:09;;;;;;;10.27;2.13;;;;;;;6.46;68.80;99991.91;5095715;28;20040;-74
2022/04/08 07:27:55;;;;;;;6.75;1.60;;;;;;;6.58;67.52;100000.59;5097708;28;20032;-75
2022/04/08 07:30:22;;;;;;;17.05;2.17;;;;;;;6.55;67.17;99988.47;5097808;28;20020;-74
2022/04/08 07:32:52;;;;;;;12.10;1.73;;;;;;;6.46;67.24;99987.47;5097040;28;20066;-73
2022/04/08 07:35:18;;;;;;;16.52;2.03;;;;;;;6.49;68.20;99992.50;5096813;28;20032;-73
2022/04/08 07:37:44;;;;;;;10.60;1.95;;;;;;;6.54;67.44;99976.25;5097512;28;20184;-73
2022/04/08 07:40:11;;;;;;;12.40;2.10;;;;;;;6.53;65.33;99974.56;5097933;28;20460;-73
2022/04/08 07:42:37;;;;;;;11.48;2.70;;;;;;;6.58;66.36;99979.44;5096979;28;20487;-73
2022/04/08 07:45:03;;;;;;;11.10;1.88;;;;;;;6.60;65.44;99977.50;5096580;28;20036;-75
2022/04/08 07:47:29;;;;;;;13.60;2.65;;;;;;;6.60;65.73;99977.50;5096475;28;20050;-74
2022/04/08 07:50:00;;;;;;;7.40;1.90;;;;;;;6.67;66.52;99975.97;5096994;28;20123;-73
2022/04/08 07:52:27;;;;;;;10.57;2.15;;;;;;;6.70;66.41;99981.00;5096539;28;20036;-73
2022/04/08 07:54:54;;;;;;;8.75;1.88;;;;;;;6.81;65.74;99977.44;5096428;28;20034;-73
2022/04/08 07:57:19;;;;;;;9.95;1.58;;;;;;;6.87;65.99;99982.19;5096606;28;20093;-73
2022/04/08 07:59:44;;;;;;;8.57;2.00;;;;;;;6.98;66.52;99979.41;5096673;28;20032;-73
2022/04/08 08:02:10;;;;;;;10.98;1.90;;;;;;;7.03;66.56;99976.34;5097700;28;20449;-73
2022/04/08 08:04:38;;;;;;;14.18;2.28;;;;;;;7.08;66.06;99971.47;5078294;28;20552;-73
2022/04/08 08:07:05;;;;;;;11.93;2.03;;;;;;;7.21;65.00;99965.91;5096506;28;20032;-73
2022/04/08 08:09:30;;;;;;;8.90;2.00;;;;;;;7.34;64.96;99966.47;5096197;28;20028;-74
2022/04/08 08:11:55;;;;;;;11.15;1.90;;;;;;;7.43;63.88;99967.44;5096773;28;20038;-73
2022/04/08 08:14:21;;;;;;;8.88;1.80;;;;;;;7.63;63.10;99959.47;5095901;28;20020;-73
2022/04/08 08:16:46;;;;;;;9.95;2.03;;;;;;;7.68;62.38;99966.03;5096287;28;20089;-73
2022/04/08 08:19:12;;;;;;;13.52;1.90;;;;;;;7.65;61.90;99962.84;5097415;28;20356;-74
2022/04/08 08:21:37;;;;;;;10.80;1.98;;;;;;;7.81;62.46;99963.09;5044464;28;20036;-73
2022/04/08 08:24:03;;;;;;;10.35;2.13;;;;;;;8.02;62.46;99954.94;5096080;28;20032;-73
2022/04/08 08:26:30;;;;;;;9.07;2.10;;;;;;;8.27;62.25;99950.81;5095987;28;20336;-72
2022/04/08 08:28:56;;;;;;;9.02;1.73;;;;;;;8.26;60.00;99949.13;5077721;28;20028;-73
2022/04/08 08:31:22;;;;;;;11.63;2.10;;;;;;;8.03;60.09;99948.69;5095489;28;20039;-71
2022/04/08 08:33:47;;;;;;;10.50;1.63;;;;;;;7.96;61.11;99952.88;5095645;28;20028;-73
2022/04/08 08:36:13;;;;;;;9.73;2.20;;;;;;;8.32;61.68;99953.03;5077569;28;20032;-72
2022/04/08 08:38:38;;;;;;;8.88;1.83;;;;;;;8.66;60.84;99947.19;5095222;28;20044;-73
2022/04/08 08:41:06;;;;;;;7.63;1.80;;;;;;;8.83;60.06;99950.84;5095798;28;20398;-72
2022/04/08 08:43:32;;;;;;;16.55;2.30;;;;;;;8.64;61.41;99955.28;5095431;28;20059;-73
2022/04/08 08:45:59;;;;;;;11.38;2.05;;;;;;;8.63;59.65;99948.31;5095674;28;20113;-73
2022/04/08 08:48:25;;;;;;;9.15;2.45;;;;;;;8.93;60.02;99950.78;5095387;28;20032;-72
2022/04/08 08:50:52;;;;;;;4.75;1.38;;;;;;;9.00;57.54;99944.72;5095502;28;20410;-71
2022/04/08 08:53:20;;;;;;;10.85;2.20;;;;;;;8.92;56.50;99944.63;5095834;28;20021;-72
2022/04/08 08:55:49;;;;;;;10.70;2.17;;;;;;;8.86;56.84;99939.94;5095429;28;20111;-73
2022/04/08 08:58:15;;;;;;;7.72;1.77;;;;;;;8.76;58.49;99934.69;5095443;28;20032;-73
2022/04/08 09:00:41;;;;;;;9.30;1.75;;;;;;;9.10;56.57;99933.19;5095296;28;20028;-72
2022/04/08 09:03:09;;;;;;;8.63;1.83;;;;;;;9.30;55.75;99926.75;5095512;28;20035;-73
2022/04/08 09:05:46;;;;;;;7.10;1.75;;;;;;;9.15;58.35;99937.06;5095177;28;20024;-72
2022/04/08 09:08:15;;;;;;;12.43;1.92;;;;;;;8.89;58.77;99942.28;5095063;28;20040;-72
2022/04/08 09:10:48;;;;;;;9.23;1.75;;;;;;;8.62;60.68;99943.97;5094926;28;20073;-72
2022/04/08 09:13:21;;;;;;;8.55;1.65;;;;;;;8.57;60.34;99956.00;5094789;28;20055;-72
2022/04/08 09:15:58;;;;;;;11.18;2.30;;;;;;;8.72;59.49;99951.03;5076555;28;20119;-73
2022/04/08 09:18:26;;;;;;;5.95;1.92;;;;;;;8.78;59.38;99945.97;5095021;28;20109;-74
2022/04/08 09:20:51;;;;;;;8.02;1.60;;;;;;;8.72;59.15;99943.06;5094754;28;20391;-72
2022/04/08 09:23:18;;;;;;;11.13;2.20;;;;;;;8.64;58.24;99947.34;5094301;28;20040;-74
2022/04/08 09:25:47;;;;;;;9.05;1.85;;;;;;;8.58;58.70;99944.41;5094583;28;20081;-73
2022/04/08 09:28:15;;;;;;;7.18;1.55;;;;;;;8.43;58.02;99938.75;5077161;28;20024;-72
2022/04/08 09:30:47;;;;;;;10.15;2.03;;;;;;;8.35;58.51;99943.97;5094476;28;20130;-73
2022/04/08 09:33:21;;;;;;;15.77;2.30;;;;;;;8.15;59.80;99938.75;5076419;28;20039;-73
2022/04/08 09:35:49;;;;;;;6.07;1.88;;;;;;;7.97;61.14;99932.50;5094690;28;20028;-73
2022/04/08 09:38:25;;;;;;;7.85;2.03;;;;;;;7.93;63.54;99927.50;5094398;28;20077;-73
2022/04/08 09:40:50;;;;;;;11.02;2.33;;;;;;;8.08;61.40;99933.19;5094051;28;20059;-72
2022/04/08 09:43:17;;;;;;;8.80;2.00;;;;;;;8.24;62.62;99927.25;5094985;28;20024;-72
2022/04/08 09:45:44;;;;;;;9.25;2.08;;;;;;;8.43;61.40;99926.34;5094684;28;20028;-73
2022/04/08 09:48:10;;;;;;;10.98;1.98;;;;;;;8.56;61.45;99923.34;5093256;28;20031;-72
2022/04/08 09:50:37;;;;;;;11.18;2.05;;;;;;;8.83;62.71;99926.97;5075783;28;20040;-72
2022/04/08 09:53:04;;;;;;;7.65;2.35;;;;;;;9.20;60.11;99930.47;5093747;28;20035;-73
2022/04/08 09:55:30;;;;;;;7.38;1.90;;;;;;;9.18;59.34;99935.91;5094816;28;20341;-71
2022/04/08 09:57:58;;;;;;;11.70;1.90;;;;;;;9.49;58.14;99947.00;5093858;28;20433;-71
2022/04/08 10:00:25;;;;;;;7.25;1.85;;;;;;;9.72;57.60;99938.53;5094049;28;20111;-73
2022/04/08 10:02:53;;;;;;;11.63;2.25;;;;;;;9.80;55.14;99945.72;5094527;28;20032;-74
2022/04/08 10:05:20;;;;;;;12.52;2.00;;;;;;;9.78;56.00;99943.22;5094399;28;20044;-72
2022/04/08 10:07:49;;;;;;;4.55;1.77;;;;;;;10.10;53.71;99940.91;5093857;28;20028;-71
2022/04/08 10:10:31;;;;;;;13.20;2.58;;;;;;;10.27;55.68;99950.66;5093962;28;20031;-72
2022/04/08 10:13:08;;;;;;;;;;;;;;;10.72;53.44;99943.38;5094783;28;20070;-72
2022/04/08 10:15:40;;;;;;;12.00;2.00;;;;;;;11.19;52.28;99944.63;5093564;28;19955;-72
2022/04/08 10:18:06;;;;;;;8.70;2.35;;;;;;;11.52;52.12;99947.28;5075838;28;20403;-72
2022/04/08 10:20:33;;;;;;;8.38;1.70;;;;;;;11.28;52.10;99943.63;5093619;28;20028;-73
2022/04/08 10:23:06;;;;;;;9.77;1.95;;;;;;;11.11;51.04;99951.59;5093475;28;20504;-72
2022/04/08 10:25:57;;;;;;;8.07;1.52;;;;;;;10.95;51.18;99940.91;5093637;28;20028;-73
2022/04/08 10:28:33;;;;;;;;;;;;;;;10.46;53.48;99946.91;5093826;28;20035;-72
2022/04/08 10:31:00;;;;;;;11.75;1.83;;;;;;;10.38;51.86;99941.56;5093253;28;19923;-73
2022/04/08 10:33:28;;;;;;;20.30;2.42;;;;;;;10.22;51.38;99935.13;5093776;28;20126;-73
2022/04/08 10:35:56;;;;;;;8.75;2.05;;;;;;;10.24;52.56;99935.84;5092940;28;20519;-73
2022/04/08 10:38:22;;;;;;;9.77;1.75;;;;;;;10.24;52.91;99946.47;5093608;28;20034;-74
2022/04/08 10:40:56;;;;;;;9.38;1.88;;;;;;;9.90;53.45;99954.41;5093146;28;20531;-74
2022/04/08 10:43:22;;;;;;;9.88;1.80;;;;;;;9.66;53.38;99960.41;5092782;28;20044;-72
2022/04/08 10:46:03;;;;;;;9.25;1.67;;;;;;;9.69;55.18;99962.75;5092588;28;20032;-73
2022/04/08 10:48:33;;;;;;;9.50;1.83;;;;;;;9.82;54.59;99951.69;5092017;28;20036;-72
2022/04/08 10:51:06;;;;;;;8.18;1.70;;;;;;;9.88;54.78;99956.38;5092397;28;20038;-74
2022/04/08 10:53:34;;;;;;;7.50;2.22;;;;;;;9.86;55.28;99942.44;5092258;28;20028;-72
2022/04/08 10:56:10;;;;;;;8.48;2.13;;;;;;;9.60;56.74;99937.94;5073767;28;20066;-72
2022/04/08 10:58:41;;;;;;;8.25;1.88;;;;;;;9.44;56.26;99932.50;5091374;28;20074;-74
2022/04/08 11:01:25;;;;;;;8.88;2.30;;;;;;;9.32;54.53;99931.91;5091692;28;20027;-73
2022/04/08 11:03:56;;;;;;;14.23;1.90;;;;;;;9.14;54.45;99930.09;5073467;28;20031;-71
2022/04/08 11:06:24;;;;;;;5.82;1.67;;;;;;;9.16;55.31;99927.28;5091718;28;20376;-71
2022/04/08 11:08:50;;;;;;;10.68;1.95;;;;;;;9.33;56.61;99936.22;5074436;28;20131;-72
2022/04/08 11:11:15;;;;;;;5.95;1.50;;;;;;;9.58;54.71;99944.38;5092567;28;20479;-72
2022/04/08 11:13:44;;;;;;;6.75;2.00;;;;;;;9.80;53.36;99943.06;5092548;28;20151;-73
2022/04/08 11:16:09;;;;;;;6.03;1.60;;;;;;;9.84;53.65;99939.94;5092775;28;20032;-73
2022/04/08 11:18:35;;;;;;;6.97;1.75;;;;;;;9.79;54.81;99939.56;5092522;28;20070;-72
2022/04/08 11:21:01;;;;;;;5.68;1.48;;;;;;;9.79;54.00;99939.56;5092927;28;20085;-72
2022/04/08 11:23:28;;;;;;;5.30;1.52;;;;;;;9.76;51.67;99928.41;5092727;28;20028;-71
2022/04/08 11:25:55;;;;;;;5.85;1.50;;;;;;;9.60;55.50;99927.31;5093432;28;20028;-71
2022/04/08 11:28:22;;;;;;;5.68;1.70;;;;;;;9.59;55.58;99911.53;5092482;28;20024;-72
2022/04/08 11:30:54;;;;;;;8.20;1.83;;;;;;;9.44;54.13;99911.25;5092633;28;20024;-70
2022/04/08 11:33:20;;;;;;;6.90;1.58;;;;;;;9.69;51.35;99922.91;5092886;28;20038;-71